Latest Weather Observations for Whyalla

IDS60801

Issued at 8:02 am CDT Friday 20 October 2017 (issued every 30 minutes, with the page automatically refreshed every 10 minutes)

About weather observations | Map of weather stations | Latest weather observations for SA | Other Formats
Station Details ID: 018120 Name: WHYALLA AERO Lat: -33.05 Lon: 137.52 Height: 9.3 m
Data from the previous 72 hours. | See also: Recent months at Whyalla
Date/Time
CDT
Temp
°C
App
Temp
°C
Dew
Point
°C
Rel
Hum
%
Delta-T
°C
Wind Press
QNH
hPa
Press
MSL
hPa
Rain since
9am
mm
Dir  Spd
km/h
Gust
km/h
Spd
kts
Gust
kts
20/08:00am 14.8 9.4 8.1 64 3.3 SSE 26 37 14 20 1029.9 1029.9 0.0
20/07:30am 14.4 8.4 7.2 62 3.5 SSE 28 39 15 21 1029.5 1029.5 0.0
20/07:00am 14.2 8.4 7.9 66 3.1 SSE 28 41 15 22 1029.2 1029.2 0.0
20/06:30am 14.0 8.9 7.5 65 3.2 SSE 24 33 13 18 1028.9 1028.9 0.0
20/06:00am 14.1 8.6 7.6 65 3.2 SSE 26 37 14 20 1028.5 1028.5 0.0
20/05:30am 14.4 8.2 6.3 58 3.9 SSE 28 37 15 20 1028.1 1028.1 0.0
20/05:00am 14.3 8.1 6.2 58 3.9 SSE 28 39 15 21 1027.9 1027.9 0.0
20/04:30am 14.3 8.7 7.1 62 3.5 SSE 26 37 14 20 1027.8 1027.8 0.0
20/04:00am 14.5 8.5 7.1 61 3.6 SSE 28 41 15 22 1027.6 1027.6 0.0
20/03:30am 14.6 8.9 8.3 66 3.1 SSE 28 41 15 22 1027.6 1027.6 0.0
20/03:00am 14.9 10.0 10.1 73 2.5 SSE 26 39 14 21 1027.4 1027.4 0.0
20/02:30am 15.2 9.7 9.1 67 3.1 S 28 41 15 22 1027.4 1027.4 0.0
20/02:00am 14.9 10.3 9.7 71 2.7 S 24 33 13 18 1027.5 1027.5 0.0
20/01:30am 14.9 9.0 9.1 68 2.9 S 30 37 16 20 1027.6 1027.6 0.0
20/01:00am 15.0 9.4 8.9 67 3.1 S 28 39 15 21 1027.5 1027.5 0.0
20/12:30am 15.2 9.2 10.0 71 2.7 S 32 44 17 24 1027.6 1027.6 0.0
20/12:00am 15.0 8.7 8.9 67 3.1 S 32 41 17 22 1027.6 1027.6 0.0
 
Date/Time
CDT
Temp
°C
App
Temp
°C
Dew
Point
°C
Rel
Hum
%
Delta-T
°C
Wind Press
QNH
hPa
Press
MSL
hPa
Rain since
9am
mm
Dir  Spd
km/h
Gust
km/h
Spd
kts
Gust
kts
19/11:30pm 15.2 9.7 9.3 68 3.0 S 28 39 15 21 1027.4 1027.4 0.0
19/11:00pm 15.2 8.4 9.3 68 3.0 S 35 46 19 25 1027.1 1027.1 0.0
19/10:30pm 15.2 9.1 9.6 69 2.9 S 32 46 17 25 1027.0 1027.0 0.0
19/10:00pm 15.4 9.8 10.0 70 2.8 S 30 43 16 23 1027.0 1027.0 0.0
19/09:30pm 15.4 9.6 9.3 67 3.1 S 30 43 16 23 1026.9 1026.9 0.0
19/09:00pm 15.6 9.2 9.3 66 3.2 S 33 46 18 25 1026.4 1026.4 0.0
19/08:30pm 15.6 8.5 9.7 68 3.0 SSW 37 50 20 27 1025.8 1025.8 0.0
19/08:00pm 15.7 9.3 10.7 72 2.7 S 35 46 19 25 1025.6 1025.6 0.0
19/07:30pm 16.0 9.4 9.9 67 3.2 S 35 50 19 27 1025.1 1025.1 0.0
19/07:00pm 16.5 9.9 10.1 66 3.4 S 35 46 19 25 1024.8 1024.8 0.0
19/06:30pm 17.1 10.9 10.0 63 3.7 S 33 50 18 27 1024.5 1024.5 0.0
19/06:00pm 17.5 11.5 10.1 62 3.9 S 32 41 17 22 1024.3 1024.3 0.0
19/05:30pm 17.7 11.5 10.1 61 4.0 S 33 43 18 23 1024.0 1024.0 0.0
19/05:00pm 17.9 12.9 11.0 64 3.7 SSE 28 39 15 21 1023.7 1023.7 0.0
19/04:30pm 18.7 12.8 10.5 59 4.4 S 32 43 17 23 1023.3 1023.3 0.0
19/04:00pm 18.6 12.3 11.2 62 4.0 S 35 43 19 23 1023.2 1023.2 0.0
19/03:30pm 17.9 12.3 11.5 66 3.5 S 32 43 17 23 1023.3 1023.3 0.0
19/03:00pm 17.8 12.0 11.6 67 3.4 S 33 44 18 24 1023.1 1023.1 0.0
19/02:30pm 19.5 14.1 12.8 65 3.8 S 33 43 18 23 1023.6 1023.6 0.0
19/02:00pm 19.5 14.6 12.5 64 3.9 S 30 44 16 24 1023.5 1023.5 0.0
19/01:30pm 18.7 13.4 12.5 67 3.4 S 32 39 17 21 1023.4 1023.4 0.0
19/01:00pm 17.8 12.6 12.7 72 2.8 S 32 46 17 25 1023.4 1023.4 0.0
19/12:30pm 18.8 15.3 13.4 71 3.1 S 24 37 13 20 1023.6 1023.6 0.0
19/12:00pm 18.6 13.7 12.6 68 3.3 SSW 30 35 16 19 1023.3 1023.3 0.0
19/11:30am 19.2 16.0 14.2 73 2.9 S 24 37 13 20 1022.6 1022.6 0.0
19/11:00am 19.1 15.5 14.1 73 2.9 S 26 33 14 18 1022.8 1022.8 0.0
19/10:30am 19.5 16.4 14.5 73 2.9 SSW 24 32 13 17 1022.6 1022.6 0.0
19/10:00am 18.6 14.5 13.9 74 2.7 SSW 28 35 15 19 1022.4 1022.4 0.0
19/09:38am 18.7 15.3 14.8 78 2.3 SSW 26 35 14 19 1022.1 1022.1 0.0
19/09:30am 18.2 14.8 14.7 80 2.0 SSW 26 33 14 18 1022.0 1022.0 0.0
19/09:20am 18.3 14.8 14.4 78 2.2 SW 26 33 14 18 1021.6 1021.6 0.0
19/09:00am 18.0 15.2 15.3 84 1.6 SSW 24 33 13 18 1021.1 1021.1 2.4
19/08:45am 17.7 14.4 15.0 84 1.6 SSW 26 32 14 17 1020.9 1020.9 2.4
19/08:30am 17.7 14.8 15.0 84 1.6 SW 24 32 13 17 1020.6 1020.6 2.4
19/08:00am 18.1 15.7 16.4 90 1.0 SSW 24 30 13 16 1019.7 1019.7 2.4
19/07:35am 18.6 17.2 17.1 91 0.9 SSW 20 28 11 15 1019.2 1019.2 2.4
19/07:30am 18.7 17.4 17.2 91 0.9 SSW 20 28 11 15 1019.1 1019.1 2.4
19/07:00am 19.5 20.8 18.5 94 0.6 WSW 9 15 5 8 1018.4 1018.4 2.4
19/06:30am 19.6 20.5 18.4 93 0.7 NW 11 13 6 7 1017.6 1017.6 2.4
19/06:00am 19.5 19.1 18.0 91 0.9 NNW 17 20 9 11 1017.2 1017.2 2.4
19/05:30am 19.6 18.8 18.1 91 0.9 NNW 19 24 10 13 1016.9 1016.9 2.4
19/05:00am 19.6 18.5 17.7 89 1.2 NNW 20 26 11 14 1016.8 1016.8 2.0
19/04:30am 20.2 21.1 18.5 90 1.1 WNW 11 13 6 7 1016.5 1016.5 1.2
19/04:00am 21.2 21.7 17.4 79 2.3 E 11 17 6 9 1015.0 1015.0 0.6
19/03:30am 21.0 22.3 17.6 81 2.1 ESE 7 11 4 6 1015.4 1015.4 0.2
19/03:00am 22.4 23.2 16.4 69 3.6 WNW 7 11 4 6 1016.6 1016.6 0.0
19/02:30am 22.6 23.6 16.4 68 3.8 NNW 6 11 3 6 1016.6 1016.6 0.0
19/02:00am 23.3 23.0 15.4 61 4.7 E 11 19 6 10 1016.0 1016.0 0.0
19/01:30am 23.0 21.9 15.3 62 4.6 ESE 15 20 8 11 1015.9 1015.9 0.0
19/01:00am 22.5 21.9 15.6 65 4.1 ESE 13 17 7 9 1016.2 1016.2 0.0
19/12:30am 21.9 21.1 16.0 69 3.5 ESE 15 20 8 11 1016.4 1016.4 0.0
19/12:00am 22.2 21.4 16.0 68 3.7 ESE 15 22 8 12 1016.4 1016.4 0.0
 
Date/Time
CDT
Temp
°C
App
Temp
°C
Dew
Point
°C
Rel
Hum
%
Delta-T
°C
Wind Press
QNH
hPa
Press
MSL
hPa
Rain since
9am
mm
Dir  Spd
km/h
Gust
km/h
Spd
kts
Gust
kts
18/11:30pm 25.6 24.6 12.4 43 7.6 SSW 9 17 5 9 1015.6 1015.6 0.0
18/11:00pm 25.8 23.1 13.0 45 7.5 SSW 19 24 10 13 1015.1 1015.1 0.0
18/10:30pm 27.1 23.4 11.6 38 8.9 SW 22 32 12 17 1014.9 1014.9 0.0
18/10:00pm 27.3 24.3 10.5 35 9.5 SSW 17 24 9 13 1014.3 1014.3 0.0
18/09:30pm 27.9 23.4 10.1 33 10.0 SW 24 33 13 18 1014.2 1014.2 0.0
18/09:00pm 28.6 22.1 10.3 32 10.3 SW 35 46 19 25 1013.6 1013.6 0.0
18/08:41pm 29.0 24.0 11.1 33 10.3 SSW 28 46 15 25 1012.9 1012.9 0.0
18/08:30pm 29.3 24.5 11.8 34 10.2 SSW 28 39 15 21 1012.9 1012.9 0.0
18/08:23pm 29.8 24.9 11.3 32 10.7 SW 28 39 15 21 1012.6 1012.6 0.0
18/08:00pm 31.2 29.2 10.0 27 12.1 N 11 13 6 7 1011.7 1011.7 0.0
18/07:30pm 32.5 29.7 9.9 25 12.9 N 15 20 8 11 1011.2 1011.2 0.0
18/07:00pm 33.2 29.6 9.9 24 13.3 N 19 22 10 12 1010.8 1010.8 0.0
18/06:30pm 33.6 29.4 9.6 23 13.7 N 22 32 12 17 1010.7 1010.7 0.0
18/06:00pm 34.8 31.0 9.9 22 14.4 N 20 35 11 19 1010.5 1010.5 0.0
18/05:30pm 34.2 30.7 10.1 23 13.9 N 19 32 10 17 1010.5 1010.5 0.0
18/05:00pm 34.4 29.2 10.3 23 14.0 N 28 37 15 20 1010.5 1010.5 0.0
18/04:30pm 34.5 29.5 9.7 22 14.3 NNW 26 39 14 21 1010.6 1010.6 0.0
18/04:00pm 34.8 29.9 9.9 22 14.4 NNW 26 43 14 23 1010.8 1010.8 0.0
18/03:30pm 33.9 29.4 9.9 23 13.8 N 24 37 13 20 1011.1 1011.1 0.0
18/03:00pm 34.9 30.8 10.0 22 14.4 NNW 22 39 12 21 1011.4 1011.4 0.0
18/02:30pm 34.4 28.8 10.3 23 14.0 NNW 30 43 16 23 1011.8 1011.8 0.0
18/02:00pm 33.1 28.5 9.8 24 13.3 N 24 43 13 23 1012.2 1012.2 0.0
18/01:30pm 33.9 28.0 10.5 24 13.6 NNW 32 46 17 25 1012.5 1012.5 0.0
18/01:00pm 33.2 27.1 10.5 25 13.1 N 33 48 18 26 1012.8 1012.8 0.0
18/12:52pm 33.1 27.2 10.4 25 13.1 NNW 32 48 17 26 1012.9 1012.9 0.0
18/12:30pm 33.0 27.6 10.9 26 12.8 NNE 30 43 16 23 1013.1 1013.1 0.0
18/12:00pm 32.2 26.6 10.3 26 12.6 N 30 43 16 23 1013.6 1013.6 0.0
18/11:36am 32.8 26.9 11.3 27 12.6 N 33 52 18 28 1013.7 1013.7 0.0
18/11:30am 32.3 26.0 10.9 27 12.4 N 35 52 19 28 1013.8 1013.8 0.0
18/11:26am 32.1 26.1 10.8 27 12.3 N 33 52 18 28 1013.8 1013.8 0.0
18/11:00am 31.7 26.0 11.0 28 12.0 N 32 43 17 23 1014.1 1014.1 0.0
18/10:30am 31.9 26.0 11.1 28 12.1 N 33 46 18 25 1014.2 1014.2 0.0
18/10:18am 31.5 25.6 11.3 29 11.7 N 33 52 18 28 1014.3 1014.3 0.0
18/10:00am 30.2 24.4 10.7 30 11.2 N 32 46 17 25 1014.4 1014.4 0.0
18/09:30am 30.1 23.3 10.6 30 11.1 N 37 48 20 26 1014.4 1014.4 0.0
18/09:09am 29.7 23.9 10.8 31 10.8 N 32 50 17 27 1014.3 1014.3 0.0
18/09:00am 29.7 23.3 10.8 31 10.8 N 35 46 19 25 1014.3 1014.3 0.0
18/08:53am 29.2 24.2 10.8 32 10.5 NNE 28 46 15 25 1014.3 1014.3 0.0
18/08:30am 28.0 24.6 10.7 34 9.8 NNE 19 28 10 15 1014.5 1014.5 0.0
18/08:00am 26.8 24.4 11.3 38 8.8 NNE 15 22 8 12 1014.4 1014.4 0.0
18/07:30am 25.4 22.9 11.2 41 8.0 NNE 15 20 8 11 1014.3 1014.3 0.0
18/07:15am 24.0 22.5 13.2 50 6.3 N 13 20 7 11 1014.3 1014.3 0.0
18/07:00am 18.7 17.2 9.2 54 5.0 NNW 7 9 4 5 1014.3 1014.3 0.0
18/06:30am 18.9 17.6 9.1 53 5.1 NW 6 7 3 4 1014.1 1014.1 0.0
18/06:00am 19.0 17.4 8.9 52 5.3 WNW 7 9 4 5 1013.8 1013.8 0.0
18/05:52am 19.5 17.6 9.1 51 5.5 WNW 9 9 5 5 1013.8 1013.8 0.0
18/05:30am 20.5 19.7 9.7 50 5.8 WNW 4 6 2 3 1013.5 1013.5 0.0
18/05:20am 20.4 19.3 9.9 51 5.6 WNW 6 7 3 4 1013.4 1013.4 0.0
18/05:00am 20.1 18.4 9.9 52 5.5 WNW 9 9 5 5 1013.4 1013.4 0.0
18/04:30am 20.5 18.4 9.7 50 5.8 WNW 11 13 6 7 1013.3 1013.3 0.0
18/04:08am 21.4 20.1 9.3 46 6.5 NW 6 9 3 5 1013.2 1013.2 0.0
18/04:00am 22.2 21.0 9.4 44 6.9 NNW 6 9 3 5 1013.2 1013.2 0.0
18/03:30am 25.3 23.5 10.7 40 8.2 NNE 11 15 6 8 1013.3 1013.3 0.0
18/03:02am 25.6 23.2 10.2 38 8.5 NNE 13 17 7 9 1013.5 1013.5 0.0
18/03:00am 25.6 23.2 10.2 38 8.5 NNE 13 17 7 9 1013.4 1013.4 0.0
18/02:30am 26.8 23.6 10.1 35 9.3 NNE 17 26 9 14 1013.5 1013.5 0.0
18/02:00am 26.7 23.9 10.0 35 9.3 NNE 15 20 8 11 1013.6 1013.6 0.0
18/01:30am 27.2 24.4 10.0 34 9.6 NNE 15 20 8 11 1013.8 1013.8 0.0
18/01:00am 27.0 24.1 9.8 34 9.5 NNE 15 22 8 12 1014.0 1014.0 0.0
18/12:30am 26.7 23.5 10.0 35 9.3 NNE 17 22 9 12 1014.2 1014.2 0.0
18/12:00am 26.1 23.7 9.9 36 9.0 NNE 13 19 7 10 1014.2 1014.2 0.0
 
Date/Time
CDT
Temp
°C
App
Temp
°C
Dew
Point
°C
Rel
Hum
%
Delta-T
°C
Wind Press
QNH
hPa
Press
MSL
hPa
Rain since
9am
mm
Dir  Spd
km/h
Gust
km/h
Spd
kts
Gust
kts
17/11:30pm 26.5 23.6 9.8 35 9.2 NNE 15 17 8 9 1014.2 1014.2 0.0
17/11:00pm 26.3 23.8 9.6 35 9.2 NNE 13 17 7 9 1014.3 1014.3 0.0
17/10:30pm 26.7 24.1 9.5 34 9.5 NNE 13 15 7 8 1014.2 1014.2 0.0
17/10:00pm 27.7 25.1 9.5 32 10.1 NNE 13 17 7 9 1014.1 1014.1 0.0
17/09:30pm 28.5 26.1 10.2 32 10.3 NNE 13 19 7 10 1013.9 1013.9 0.0
17/09:00pm 29.4 26.2 10.0 30 10.9 NNE 17 30 9 16 1013.6 1013.6 0.0
17/08:30pm 29.7 26.5 9.8 29 11.2 NE 17 24 9 13 1013.1 1013.1 0.0
17/08:00pm 30.1 26.6 10.1 29 11.3 NE 19 26 10 14 1012.8 1012.8 0.0
17/07:30pm 31.0 27.1 9.3 26 12.2 NE 20 30 11 16 1012.5 1012.5 0.0
17/07:00pm 31.5 26.8 9.1 25 12.6 NE 24 32 13 17 1012.1 1012.1 0.0
17/06:30pm 32.3 27.4 8.5 23 13.3 NE 24 33 13 18 1011.8 1011.8 0.0
17/06:00pm 32.5 27.0 7.4 21 13.8 NE 26 41 14 22 1011.6 1011.6 0.0
17/05:30pm 33.1 27.9 7.1 20 14.3 NE 24 35 13 19 1011.6 1011.6 0.0
17/05:00pm 33.5 28.9 6.7 19 14.6 NE 20 35 11 19 1011.6 1011.6 0.0
17/04:30pm 34.2 28.3 7.3 19 14.9 NNE 28 41 15 22 1011.7 1011.7 0.0
17/04:00pm 33.3 28.7 6.6 19 14.5 NNE 20 37 11 20 1011.8 1011.8 0.0
17/03:30pm 33.4 28.1 6.6 19 14.6 NNE 24 35 13 19 1012.1 1012.1 0.0
17/03:00pm 33.8 29.3 7.0 19 14.7 NNE 20 37 11 20 1012.5 1012.5 0.0
17/02:30pm 32.8 27.7 6.2 19 14.3 NNE 22 33 12 18 1013.0 1013.0 0.0
17/02:00pm 32.5 27.0 5.9 19 14.2 NNE 24 41 13 22 1013.5 1013.5 0.0
17/01:30pm 32.7 27.6 6.1 19 14.3 NNE 22 32 12 17 1013.8 1013.8 0.0
17/01:00pm 32.2 26.8 6.4 20 13.9 NNE 24 39 13 21 1014.1 1014.1 0.0
17/12:40pm 33.0 26.8 6.3 19 14.4 N 28 54 15 29 1014.1 1014.1 0.0
17/12:30pm 32.1 26.2 5.6 19 14.1 NNE 26 43 14 23 1014.4 1014.4 0.0
17/12:00pm 32.2 26.3 5.7 19 14.1 N 26 41 14 22 1014.8 1014.8 0.0
17/11:30am 32.3 25.8 6.5 20 13.9 N 30 43 16 23 1015.3 1015.3 0.0
17/11:01am 31.3 24.2 5.7 20 13.6 N 32 50 17 27 1015.7 1015.7 0.0
17/11:00am 31.0 23.8 6.1 21 13.3 N 33 50 18 27 1015.7 1015.7 0.0
17/10:30am 30.2 23.1 5.5 21 13.0 N 32 50 17 27 1016.0 1016.0 0.0
17/10:00am 29.8 23.0 5.1 21 12.9 NNE 30 41 16 22 1016.0 1016.0 0.0
17/09:30am 30.0 24.9 6.0 22 12.7 N 22 30 12 16 1016.1 1016.1 0.0
17/09:00am 28.4 24.1 7.1 26 11.4 N 19 28 10 15 1016.3 1016.3 0.0
17/08:30am 26.2 22.1 7.7 31 9.9 NNE 19 28 10 15 1016.4 1016.4 0.0

Other Formats:

Comma delimited format used in spreadsheet applications
http://www.bom.gov.au/fwo/IDS60801/IDS60801.95664.axf

JavaScript Object Notation format (JSON) in row-major order
http://www.bom.gov.au/fwo/IDS60801/IDS60801.95664.json